Time;durP1;ratioP1;P1;durP2;ratioP2;P2;SDS_P1;SDS_P2;PMS_P1;PMS_P2;Temp;Humidity;BMP_temperature;BMP_pressure;BME280_temperature;BME280_humidity;BME280_pressure;Samples;Min_cycle;Max_cycle;Signal;HPM_P1;HPM_P2
2023/07/28 00:00:39;;;;;;;0.70;0.70;;;;;;;16.11;59.19;96837.25;5023310;28;20050;-61
2023/07/28 00:03:06;;;;;;;0.70;0.70;;;;;;;15.94;59.86;96836.19;5023951;28;20041;-59
2023/07/28 00:05:32;;;;;;;0.60;0.60;;;;;;;16.17;60.15;96900.69;5022929;28;20516;-60
2023/07/28 00:07:59;;;;;;;0.60;0.60;;;;;;;16.09;60.64;96910.31;5023874;28;20053;-58
2023/07/28 00:10:26;;;;;;;0.70;0.70;;;;;;;15.97;60.98;96907.22;5023008;28;20539;-59
2023/07/28 00:12:52;;;;;;;0.70;0.70;;;;;;;15.87;61.11;96913.69;5025429;28;20057;-59
2023/07/28 00:15:19;;;;;;;0.70;0.70;;;;;;;15.88;61.37;96910.47;5025772;28;20551;-58
2023/07/28 00:17:46;;;;;;;0.70;0.70;;;;;;;15.82;61.64;96914.88;5031422;28;20446;-60
2023/07/28 00:20:12;;;;;;;0.63;0.63;;;;;;;15.84;61.70;96932.03;5047174;28;20122;-58
2023/07/28 00:22:39;;;;;;;0.70;0.70;;;;;;;15.57;62.72;96919.00;5047494;28;20135;-59
2023/07/28 00:25:06;;;;;;;0.70;0.70;;;;;;;15.48;63.23;96916.66;5046126;28;20060;-59
2023/07/28 00:27:33;;;;;;;0.60;0.60;;;;;;;15.46;63.48;96899.50;5047325;28;20401;-58
2023/07/28 00:29:59;;;;;;;0.70;0.70;;;;;;;15.58;63.27;96920.59;5047364;28;20056;-58
2023/07/28 00:32:26;;;;;;;0.70;0.70;;;;;;;15.43;63.56;96928.22;5047217;28;20158;-59
2023/07/28 00:34:53;;;;;;;0.70;0.70;;;;;;;15.34;64.43;96925.03;5047109;28;20048;-59
2023/07/28 00:37:19;;;;;;;0.70;0.70;;;;;;;15.15;64.62;96922.72;5047543;28;20053;-58
2023/07/28 00:39:46;;;;;;;0.70;0.70;;;;;;;14.92;65.06;96900.06;5046614;28;20052;-59
2023/07/28 00:42:13;;;;;;;0.60;0.60;;;;;;;15.23;65.13;96927.09;5046916;28;20057;-58
2023/07/28 00:44:39;;;;;;;0.60;0.60;;;;;;;15.20;64.83;96925.09;5045682;28;20049;-58
2023/07/28 00:47:06;;;;;;;0.68;0.68;;;;;;;15.18;64.91;96927.50;5044917;28;20500;-60
2023/07/28 00:49:33;;;;;;;0.60;0.60;;;;;;;15.20;64.87;96953.00;5046527;28;20049;-58
2023/07/28 00:52:01;;;;;;;0.63;0.63;;;;;;;15.21;64.66;96937.84;5046672;28;20060;-58
2023/07/28 00:54:27;;;;;;;0.70;0.70;;;;;;;15.10;66.70;96953.81;5046616;28;20504;-58
2023/07/28 00:56:55;;;;;;;0.63;0.63;;;;;;;15.00;68.00;96946.28;5046374;28;20052;-59
2023/07/28 00:59:22;;;;;;;0.60;0.60;;;;;;;14.81;68.99;96943.91;5046702;28;20049;-59
2023/07/28 01:01:48;;;;;;;0.60;0.60;;;;;;;14.87;69.09;96940.28;5046237;28;20443;-58
2023/07/28 01:04:15;;;;;;;0.65;0.65;;;;;;;15.01;68.54;96953.44;5046466;28;20052;-61
2023/07/28 01:06:55;;;;;;;0.70;0.70;;;;;;;15.02;68.87;96952.22;5046186;28;20522;-58
2023/07/28 01:09:25;;;;;;;0.63;0.63;;;;;;;14.97;69.11;96944.25;5045409;28;20068;-58
2023/07/28 01:11:54;;;;;;;0.60;0.60;;;;;;;14.79;69.54;96922.00;5046701;28;20079;-58
2023/07/28 01:14:20;;;;;;;0.60;0.60;;;;;;;14.59;68.57;96884.56;5044784;28;20568;-58
2023/07/28 01:16:47;;;;;;;0.60;0.60;;;;;;;15.18;66.36;96949.81;5046217;28;20617;-58
2023/07/28 01:19:18;;;;;;;0.60;0.60;;;;;;;15.19;66.67;96943.03;5046324;28;20048;-57
2023/07/28 01:21:54;;;;;;;0.60;0.60;;;;;;;15.11;66.27;96935.91;5044730;28;20881;-57
2023/07/28 01:24:27;;;;;;;0.60;0.60;;;;;;;14.80;67.10;96933.94;5045457;28;20049;-58
2023/07/28 01:26:54;;;;;;;0.60;0.60;;;;;;;14.77;67.61;96931.94;5046029;28;20455;-58
2023/07/28 01:29:22;;;;;;;0.70;0.70;;;;;;;14.70;68.09;96940.34;5045698;28;20057;-60
2023/07/28 01:31:50;;;;;;;0.70;0.70;;;;;;;14.68;68.07;96932.38;5045504;28;20817;-57
2023/07/28 01:34:17;;;;;;;0.60;0.60;;;;;;;14.12;68.30;96875.81;5046289;28;20084;-57
2023/07/28 01:36:44;;;;;;;0.60;0.60;;;;;;;14.40;68.94;96956.66;5044764;28;20049;-58
2023/07/28 01:39:10;;;;;;;0.60;0.60;;;;;;;14.29;69.33;96953.06;5044433;28;20052;-59
2023/07/28 01:41:39;;;;;;;0.60;0.60;;;;;;;14.08;69.77;96928.75;5045474;28;20551;-57
2023/07/28 01:44:06;;;;;;;0.60;0.60;;;;;;;14.39;69.33;96952.28;5046149;28;20053;-58
2023/07/28 01:46:32;;;;;;;0.60;0.60;;;;;;;14.11;69.26;96938.28;5027737;28;20048;-58
2023/07/28 01:49:00;;;;;;;0.60;0.60;;;;;;;13.78;70.22;96894.06;5046051;28;20567;-57
2023/07/28 01:51:26;;;;;;;0.60;0.60;;;;;;;14.17;70.06;96956.19;5044140;28;20045;-58
2023/07/28 01:53:53;;;;;;;0.60;0.60;;;;;;;13.61;70.15;96874.16;5044415;28;20072;-58
2023/07/28 01:56:20;;;;;;;0.60;0.60;;;;;;;13.97;70.29;96930.72;5039359;28;20057;-58
2023/07/28 01:58:46;;;;;;;0.60;0.60;;;;;;;14.01;70.74;96950.19;5025958;28;20486;-58
2023/07/28 02:01:13;;;;;;;0.60;0.60;;;;;;;14.11;70.83;96958.59;5025248;28;20050;-58
2023/07/28 02:03:40;;;;;;;0.60;0.60;;;;;;;14.10;70.35;96956.19;5057136;28;20061;-58
2023/07/28 02:06:06;;;;;;;0.50;0.50;;;;;;;13.49;70.88;96899.56;5025377;28;20061;-57
2023/07/28 02:08:33;;;;;;;0.60;0.60;;;;;;;13.77;72.21;96953.72;5025566;28;20056;-57
2023/07/28 02:11:00;;;;;;;0.60;0.60;;;;;;;13.70;72.41;96960.84;5025056;28;20447;-57
2023/07/28 02:13:26;;;;;;;0.60;0.60;;;;;;;13.74;71.81;96976.78;5057009;28;20464;-57
2023/07/28 02:15:53;;;;;;;0.60;0.60;;;;;;;13.32;72.29;96928.13;5024792;28;20052;-57
2023/07/28 02:18:20;;;;;;;0.60;0.60;;;;;;;13.65;72.35;96980.75;5030861;28;20486;-58
2023/07/28 02:20:49;;;;;;;0.60;0.60;;;;;;;13.57;72.84;96951.28;5044664;28;20061;-57
2023/07/28 02:23:16;;;;;;;0.60;0.60;;;;;;;13.85;72.28;96972.06;5044864;28;20427;-58
2023/07/28 02:25:42;;;;;;;0.60;0.60;;;;;;;13.92;71.24;96975.66;5044527;28;20053;-58
2023/07/28 02:28:10;;;;;;;0.60;0.60;;;;;;;13.73;71.18;96952.91;5045261;28;20067;-58
2023/07/28 02:30:37;;;;;;;0.60;0.60;;;;;;;13.93;71.36;96985.59;5044737;28;20133;-60
2023/07/28 02:33:04;;;;;;;0.65;0.65;;;;;;;13.95;70.65;96982.41;5043692;28;20088;-57
2023/07/28 02:35:32;;;;;;;0.70;0.70;;;;;;;13.97;70.53;96991.19;5043543;28;20577;-58
2023/07/28 02:37:58;;;;;;;0.60;0.60;;;;;;;13.89;71.49;96990.38;5044491;28;20059;-59
2023/07/28 02:40:25;;;;;;;0.70;0.70;;;;;;;13.88;71.69;96993.53;5044373;28;20059;-57
2023/07/28 02:42:53;;;;;;;0.60;0.60;;;;;;;13.84;71.69;96976.81;5044850;28;20056;-58
2023/07/28 02:45:19;;;;;;;0.60;0.60;;;;;;;13.89;71.55;96982.00;5043476;28;20049;-57
2023/07/28 02:47:46;;;;;;;0.60;0.60;;;;;;;13.86;71.73;96980.00;5044076;28;20434;-57
2023/07/28 02:50:13;;;;;;;0.60;0.60;;;;;;;13.83;71.63;96980.00;5044608;28;20053;-58
2023/07/28 02:52:39;;;;;;;0.60;0.60;;;;;;;13.79;72.18;96979.16;5044444;28;20656;-57
2023/07/28 02:55:06;;;;;;;0.60;0.60;;;;;;;13.76;72.03;96985.53;5042866;28;20057;-58
2023/07/28 02:57:33;;;;;;;0.60;0.60;;;;;;;13.75;71.78;96978.38;5044101;28;20053;-57
2023/07/28 03:00:00;;;;;;;0.60;0.60;;;;;;;12.98;72.14;96868.31;5044167;28;20534;-57
2023/07/28 03:02:26;;;;;;;0.60;0.60;;;;;;;13.66;72.37;96984.28;5042486;28;20057;-58
2023/07/28 03:04:53;;;;;;;0.68;0.68;;;;;;;13.51;73.48;96980.66;5044352;28;20049;-60
2023/07/28 03:07:20;;;;;;;0.60;0.60;;;;;;;13.53;73.29;96983.84;5043994;28;20535;-59
2023/07/28 03:09:46;;;;;;;0.60;0.60;;;;;;;13.47;73.11;96996.53;5044134;28;20060;-60
2023/07/28 03:12:13;;;;;;;0.60;0.60;;;;;;;13.45;73.06;96992.56;5042714;28;20053;-57
2023/07/28 03:14:40;;;;;;;0.60;0.60;;;;;;;13.44;72.81;96996.53;5043172;28;20056;-60
2023/07/28 03:17:06;;;;;;;0.63;0.63;;;;;;;13.45;73.52;97004.47;5044081;28;20068;-57
2023/07/28 03:19:33;;;;;;;0.50;0.50;;;;;;;13.36;73.47;96995.69;5044243;28;20064;-59
2023/07/28 03:21:59;;;;;;;0.60;0.60;;;;;;;13.48;73.57;96998.13;5042595;28;20049;-57
2023/07/28 03:24:26;;;;;;;0.60;0.60;;;;;;;13.26;73.54;96996.41;5044125;28;20057;-57
2023/07/28 03:26:53;;;;;;;0.60;0.60;;;;;;;13.21;74.53;97010.72;5043481;28;20475;-58
2023/07/28 03:29:19;;;;;;;0.60;0.60;;;;;;;12.56;74.48;96901.44;5042415;28;20060;-58
2023/07/28 03:31:46;;;;;;;0.60;0.60;;;;;;;13.32;74.63;97017.16;5043944;28;20074;-58
2023/07/28 03:34:13;;;;;;;0.60;0.60;;;;;;;13.33;74.57;97015.94;5042913;28;20084;-58
2023/07/28 03:36:39;;;;;;;0.60;0.60;;;;;;;13.46;74.21;97011.66;5043912;28;20052;-60
2023/07/28 03:39:06;;;;;;;0.60;0.60;;;;;;;13.51;73.72;97008.47;5043566;28;20053;-58
2023/07/28 03:41:33;;;;;;;0.60;0.60;;;;;;;13.44;73.67;97014.03;5043405;28;20053;-60
2023/07/28 03:44:00;;;;;;;0.60;0.60;;;;;;;13.65;73.32;97030.84;5043823;28;20160;-58
2023/07/28 03:46:26;;;;;;;0.60;0.60;;;;;;;13.77;72.78;97031.69;5042161;28;20503;-58
2023/07/28 03:48:57;;;;;;;0.60;0.60;;;;;;;13.37;73.08;96957.56;5041620;28;20144;-61
2023/07/28 03:51:24;;;;;;;0.60;0.60;;;;;;;13.97;72.00;97024.59;5043675;28;20132;-60
2023/07/28 03:53:51;;;;;;;0.65;0.65;;;;;;;14.15;71.21;97014.28;5043621;28;20045;-58
2023/07/28 03:56:17;;;;;;;0.60;0.60;;;;;;;14.26;70.78;97026.28;5043501;28;20411;-60
2023/07/28 03:58:44;;;;;;;0.60;0.60;;;;;;;14.37;70.63;97022.34;5044015;28;20045;-58
2023/07/28 04:01:11;;;;;;;0.60;0.60;;;;;;;14.45;70.11;97017.56;5043037;28;20057;-58
2023/07/28 04:03:38;;;;;;;0.60;0.60;;;;;;;14.58;69.16;97024.34;5044043;28;20063;-58
2023/07/28 04:06:14;;;;;;;0.60;0.60;;;;;;;14.71;69.11;97025.56;5043811;28;20086;-58
2023/07/28 04:08:41;;;;;;;0.70;0.70;;;;;;;14.80;68.47;97025.97;5043945;28;20056;-58
2023/07/28 04:11:07;;;;;;;0.60;0.60;;;;;;;14.75;69.20;97026.34;5042102;28;20570;-58
2023/07/28 04:13:34;;;;;;;0.60;0.60;;;;;;;14.94;68.53;97028.75;5043324;28;20521;-59
2023/07/28 04:16:01;;;;;;;0.60;0.60;;;;;;;15.07;68.11;97027.16;5043429;28;20075;-59
2023/07/28 04:18:28;;;;;;;0.70;0.70;;;;;;;14.67;67.62;96952.25;5043145;28;20048;-58
2023/07/28 04:20:55;;;;;;;0.70;0.70;;;;;;;15.06;68.70;97031.16;5042963;28;20053;-59
2023/07/28 04:23:21;;;;;;;0.70;0.70;;;;;;;14.76;67.68;96945.09;5041731;28;20063;-59
2023/07/28 04:25:48;;;;;;;0.70;0.70;;;;;;;15.03;67.12;96981.75;5043050;28;20061;-57
2023/07/28 04:28:15;;;;;;;0.70;0.70;;;;;;;15.44;66.56;97021.97;5043299;28;20060;-58
2023/07/28 04:30:42;;;;;;;0.70;0.70;;;;;;;15.38;68.49;97031.91;5041825;28;20053;-59
2023/07/28 04:33:08;;;;;;;0.70;0.70;;;;;;;15.03;68.70;96965.00;5043441;28;20545;-60
2023/07/28 04:35:35;;;;;;;0.70;0.70;;;;;;;15.61;68.34;97032.28;5038221;28;20041;-59
2023/07/28 04:38:02;;;;;;;0.60;0.60;;;;;;;15.78;67.99;97039.81;5022232;28;20451;-61
2023/07/28 04:40:28;;;;;;;0.70;0.70;;;;;;;15.86;68.09;97035.78;5054585;28;20045;-58
2023/07/28 04:42:55;;;;;;;0.60;0.60;;;;;;;16.09;67.01;97044.47;5023219;28;20056;-59
2023/07/28 04:45:22;;;;;;;0.70;0.70;;;;;;;16.27;66.20;97039.59;5023037;28;20520;-59
2023/07/28 04:47:48;;;;;;;0.73;0.73;;;;;;;16.54;65.52;97043.47;5023243;28;20058;-59
2023/07/28 04:50:15;;;;;;;0.70;0.70;;;;;;;16.76;64.53;97038.50;5022844;28;20049;-59
2023/07/28 04:52:42;;;;;;;0.70;0.70;;;;;;;16.92;63.57;97046.38;5054526;28;20328;-59
2023/07/28 04:55:08;;;;;;;0.70;0.70;;;;;;;16.89;63.46;97053.59;5022962;28;20049;-58
2023/07/28 04:57:35;;;;;;;0.77;0.77;;;;;;;17.15;63.23;97055.00;5023135;28;20061;-59
2023/07/28 05:00:02;;;;;;;0.77;0.77;;;;;;;17.21;62.75;97058.94;5023492;28;20882;-58
2023/07/28 05:02:29;;;;;;;0.80;0.80;;;;;;;17.39;62.36;97045.56;5026826;28;20467;-58
2023/07/28 05:04:55;;;;;;;0.80;0.80;;;;;;;17.59;61.45;97055.00;5026415;28;20080;-59
2023/07/28 05:07:22;;;;;;;0.70;0.70;;;;;;;17.79;61.12;97053.19;5026699;28;20060;-61
2023/07/28 05:09:49;;;;;;;0.75;0.75;;;;;;;17.13;59.08;96923.06;5026606;28;20042;-59
2023/07/28 05:12:15;;;;;;;0.85;0.85;;;;;;;18.10;58.66;97054.81;5026137;28;20053;-60
2023/07/28 05:14:42;;;;;;;0.80;0.80;;;;;;;18.20;58.76;97050.28;5026526;28;20056;-59
2023/07/28 05:17:09;;;;;;;0.80;0.80;;;;;;;18.32;58.24;97036.50;5026529;28;20045;-61
2023/07/28 05:19:35;;;;;;;0.80;0.80;;;;;;;18.41;57.69;97050.84;5038850;28;20064;-59
2023/07/28 05:22:02;;;;;;;0.80;0.80;;;;;;;18.66;57.14;97042.88;5044734;28;20057;-61
2023/07/28 05:24:29;;;;;;;0.80;0.80;;;;;;;18.77;56.49;97025.88;5046120;28;20079;-59
2023/07/28 05:26:56;;;;;;;0.80;0.80;;;;;;;19.00;55.87;97040.75;5045754;28;20056;-59
2023/07/28 05:29:22;;;;;;;0.80;0.80;;;;;;;19.12;55.67;97054.19;5046598;28;20534;-59
2023/07/28 05:31:49;;;;;;;0.80;0.80;;;;;;;19.32;55.04;97045.84;5044365;28;20044;-59
2023/07/28 05:34:16;;;;;;;0.80;0.80;;;;;;;19.42;54.90;97051.31;5045333;28;20512;-59
2023/07/28 05:36:43;;;;;;;1.00;1.00;;;;;;;19.55;54.55;97051.50;5045425;28;20539;-57
2023/07/28 05:39:10;;;;;;;0.90;0.90;;;;;;;19.39;55.27;97045.75;5045690;28;20053;-59
2023/07/28 05:41:37;;;;;;;0.90;0.90;;;;;;;19.11;54.00;96990.81;5045309;28;20052;-59
2023/07/28 05:44:04;;;;;;;0.82;0.82;;;;;;;19.50;53.35;97009.81;5045906;28;20064;-58
2023/07/28 05:46:31;;;;;;;0.90;0.90;;;;;;;19.93;51.63;97047.16;5044178;28;20063;-58
2023/07/28 05:48:58;;;;;;;1.00;1.00;;;;;;;20.07;52.05;97052.50;5045219;28;20150;-59
2023/07/28 05:51:24;;;;;;;0.90;0.90;;;;;;;20.24;51.45;97039.31;5043731;28;20049;-59
2023/07/28 05:53:51;;;;;;;0.90;0.90;;;;;;;20.47;51.20;97047.66;5045509;28;20056;-57
2023/07/28 05:56:18;;;;;;;0.93;0.93;;;;;;;20.46;51.20;97034.81;5044187;28;20084;-58
2023/07/28 05:58:46;;;;;;;1.00;1.00;;;;;;;20.76;50.62;97054.25;5044449;28;20057;-58
2023/07/28 06:01:13;;;;;;;0.93;0.93;;;;;;;20.87;49.62;97049.16;5043859;28;20056;-58
2023/07/28 06:03:40;;;;;;;0.93;0.93;;;;;;;20.95;49.26;97051.38;5045388;28;20491;-58
2023/07/28 06:06:12;;;;;;;1.00;1.00;;;;;;;19.84;48.63;96875.41;5042714;28;20045;-61
2023/07/28 06:08:38;;;;;;;1.00;1.00;;;;;;;21.24;48.36;97064.81;5042387;28;20135;-68
2023/07/28 06:11:06;;;;;;;1.10;1.10;;;;;;;21.03;48.20;97018.22;5042143;28;20045;-69
2023/07/28 06:13:32;;;;;;;1.05;1.05;;;;;;;21.48;48.44;97054.94;5037856;28;20127;-72
2023/07/28 06:15:59;;;;;;;1.02;1.02;;;;;;;21.33;48.75;97034.78;5042911;28;20512;-66
2023/07/28 06:18:26;;;;;;;1.02;1.02;;;;;;;21.35;47.73;97023.06;5040408;28;20053;-67
2023/07/28 06:20:53;;;;;;;0.90;0.90;;;;;;;21.34;47.71;97063.75;5032932;28;20049;-64
2023/07/28 06:23:19;;;;;;;1.10;1.10;;;;;;;21.35;46.76;96998.50;5037951;28;20126;-66
2023/07/28 06:25:46;;;;;;;1.10;1.10;;;;;;;20.61;46.74;96884.09;5044604;28;20106;-65
2023/07/28 06:28:13;;;;;;;1.00;1.00;;;;;;;21.41;45.70;96982.63;5037272;28;20051;-63
2023/07/28 06:30:40;;;;;;;1.00;1.00;;;;;;;21.93;45.45;97048.13;5024491;28;20045;-62
2023/07/28 06:33:07;;;;;;;1.00;1.00;;;;;;;21.87;44.24;96982.19;5024571;28;20061;-64
2023/07/28 06:35:34;;;;;;;1.00;1.00;;;;;;;21.82;44.00;96979.91;5024529;28;20053;-62
2023/07/28 06:38:02;;;;;;;1.10;1.10;;;;;;;22.35;44.31;97046.91;5056127;28;20054;-60
2023/07/28 06:40:29;;;;;;;1.00;1.00;;;;;;;22.62;44.40;97043.69;5023852;28;20055;-60
2023/07/28 06:42:56;;;;;;;1.10;1.10;;;;;;;22.04;45.05;96997.81;5024578;28;20059;-64
2023/07/28 06:45:22;;;;;;;1.00;1.00;;;;;;;21.65;43.65;96862.75;5055354;28;20426;-61
2023/07/28 06:47:49;;;;;;;1.10;1.10;;;;;;;22.68;43.72;97007.22;5022101;28;20076;-64
2023/07/28 06:50:16;;;;;;;1.00;1.00;;;;;;;22.30;43.26;96880.91;5054638;28;20151;-61
2023/07/28 06:52:43;;;;;;;1.00;1.00;;;;;;;23.40;42.69;97019.41;5023260;28;20136;-64
2023/07/28 06:55:09;;;;;;;0.98;0.98;;;;;;;23.28;43.21;96960.88;5036316;28;20075;-61
2023/07/28 06:57:36;;;;;;;1.00;1.00;;;;;;;23.11;42.83;96950.94;5040581;28;20445;-62
2023/07/28 07:00:05;;;;;;;1.00;1.00;;;;;;;22.96;42.79;96984.53;5042074;28;20045;-59
2023/07/28 07:02:32;;;;;;;1.10;1.10;;;;;;;22.79;42.40;96917.31;5041806;28;20053;-63
2023/07/28 07:04:58;;;;;;;1.10;1.10;;;;;;;23.30;42.20;97029.06;5042203;28;20083;-65
2023/07/28 07:07:25;;;;;;;1.00;1.00;;;;;;;23.79;41.03;97014.00;5040198;28;20061;-65
2023/07/28 07:09:56;;;;;;;1.15;1.15;;;;;;;24.06;40.84;97021.94;5041520;28;20049;-61
2023/07/28 07:12:22;;;;;;;1.20;1.20;;;;;;;22.61;39.21;96753.28;5038720;28;20483;-63
2023/07/28 07:14:49;;;;;;;1.20;1.20;;;;;;;24.25;40.28;97023.66;5041340;28;20056;-61
2023/07/28 07:17:16;;;;;;;1.10;1.10;;;;;;;24.24;38.97;96988.13;5042964;28;20158;-65
2023/07/28 07:19:43;;;;;;;1.20;1.20;;;;;;;23.49;40.58;96988.44;5042727;28;20627;-67
2023/07/28 07:22:09;;;;;;;0.98;0.98;;;;;;;23.84;40.13;96981.50;5037488;28;20053;-62
2023/07/28 07:24:36;;;;;;;1.10;1.10;;;;;;;23.89;39.52;96938.47;5026582;28;20053;-67
2023/07/28 07:27:03;;;;;;;1.10;1.10;;;;;;;24.20;38.79;96959.16;5023800;28;20350;-63
2023/07/28 07:29:30;;;;;;;1.27;1.27;;;;;;;24.37;38.16;96923.72;5038246;28;20052;-60
2023/07/28 07:31:57;;;;;;;1.20;1.20;;;;;;;24.87;37.61;96999.03;5024220;28;20063;-66
2023/07/28 07:34:23;;;;;;;1.10;1.10;;;;;;;23.79;38.39;96940.44;5040666;28;20059;-66
2023/07/28 07:36:50;;;;;;;1.10;1.10;;;;;;;24.71;38.59;97002.91;5041327;28;20169;-62
2023/07/28 07:39:17;;;;;;;1.10;1.10;;;;;;;25.03;37.83;96996.75;5041116;28;20041;-64
2023/07/28 07:41:43;;;;;;;1.10;1.10;;;;;;;24.78;36.20;97016.81;5043093;28;20124;-68
2023/07/28 07:44:10;;;;;;;1.25;1.25;;;;;;;25.19;36.90;96996.50;5036536;28;20416;-67
2023/07/28 07:46:37;;;;;;;1.20;1.20;;;;;;;25.59;35.89;97001.34;5035611;28;20153;-61
2023/07/28 07:49:05;;;;;;;1.30;1.30;;;;;;;25.87;35.53;97000.13;5043354;28;20490;-62
2023/07/28 07:51:33;;;;;;;1.42;1.42;;;;;;;25.36;35.70;96994.22;5042931;28;20088;-62
2023/07/28 07:54:01;;;;;;;1.30;1.30;;;;;;;25.31;35.73;96970.06;5041501;28;20049;-63
2023/07/28 07:56:27;;;;;;;1.42;1.42;;;;;;;25.78;35.63;96986.69;5042002;28;20049;-62
2023/07/28 07:58:54;;;;;;;1.27;1.27;;;;;;;26.08;34.73;96987.84;5026649;28;20049;-64
2023/07/28 08:01:21;;;;;;;1.30;1.30;;;;;;;26.32;34.07;96991.63;5023450;28;20049;-59
2023/07/28 08:03:48;;;;;;;1.33;1.33;;;;;;;26.21;34.09;96940.16;5037484;28;20056;-60
2023/07/28 08:06:14;;;;;;;1.40;1.40;;;;;;;26.67;33.85;96995.66;5040120;28;20087;-60
2023/07/28 08:08:41;;;;;;;1.40;1.40;;;;;;;25.34;34.27;96991.03;5041857;28;20063;-63
2023/07/28 08:11:10;;;;;;;1.55;1.55;;;;;;;25.58;34.28;96935.28;5042464;28;20080;-65
2023/07/28 08:13:37;;;;;;;1.25;1.25;;;;;;;25.09;35.79;96985.59;5043166;28;20049;-60
2023/07/28 08:16:04;;;;;;;1.15;1.15;;;;;;;24.62;35.76;96866.84;5041908;28;20040;-61
2023/07/28 08:18:30;;;;;;;1.45;1.45;;;;;;;25.40;35.46;96954.34;5041822;28;20501;-63
2023/07/28 08:20:57;;;;;;;1.30;1.30;;;;;;;26.03;34.90;96983.59;5041496;28;20522;-69
2023/07/28 08:23:24;;;;;;;1.35;1.35;;;;;;;26.18;34.57;96980.88;5038614;28;20045;-62
2023/07/28 08:25:51;;;;;;;1.15;1.15;;;;;;;24.94;33.96;96767.13;5041493;28;20053;-64
2023/07/28 08:28:17;;;;;;;1.30;1.30;;;;;;;25.90;34.17;96885.63;5038037;28;20597;-64
2023/07/28 08:30:44;;;;;;;1.45;1.45;;;;;;;26.76;33.05;96975.75;5041873;28;20067;-67
2023/07/28 08:33:11;;;;;;;1.33;1.33;;;;;;;27.02;32.40;96976.91;5042545;28;20037;-65
2023/07/28 08:35:37;;;;;;;1.50;1.50;;;;;;;26.99;32.32;96972.16;5045373;28;20048;-63
2023/07/28 08:38:04;;;;;;;1.42;1.42;;;;;;;27.05;32.24;96973.09;5044717;28;20469;-60
2023/07/28 08:40:33;;;;;;;1.35;1.35;;;;;;;25.55;32.61;96714.94;5046537;28;20056;-61
2023/07/28 08:43:00;;;;;;;1.50;1.50;;;;;;;26.81;32.05;96937.34;5046396;28;20369;-63
2023/07/28 08:45:28;;;;;;;1.40;1.40;;;;;;;27.04;31.33;96973.56;5042645;28;20055;-62
2023/07/28 08:47:54;;;;;;;1.50;1.50;;;;;;;26.81;31.92;96948.72;5046316;28;20059;-58
2023/07/28 08:50:21;;;;;;;1.42;1.42;;;;;;;27.13;32.02;96960.09;5046006;28;20534;-62
2023/07/28 08:52:50;;;;;;;1.60;1.60;;;;;;;26.93;31.19;96894.47;5044848;28;20103;-57
2023/07/28 08:55:17;;;;;;;1.58;1.58;;;;;;;27.01;31.06;96923.34;5043091;28;20049;-61
2023/07/28 08:57:43;;;;;;;1.60;1.60;;;;;;;27.11;31.39;96973.22;5046018;28;20111;-60
2023/07/28 09:00:13;;;;;;;1.70;1.70;;;;;;;27.19;31.26;96963.84;5039954;28;20114;-63
2023/07/28 09:02:41;;;;;;;1.70;1.70;;;;;;;26.85;31.16;96904.63;5045827;28;20053;-66
2023/07/28 09:05:19;;;;;;;1.58;1.58;;;;;;;27.32;32.38;96933.16;5045354;28;20147;-66
2023/07/28 09:07:47;;;;;;;1.40;1.40;;;;;;;27.35;31.71;96943.56;5042119;28;20045;-63
2023/07/28 09:10:14;;;;;;;1.52;1.52;;;;;;;26.70;33.61;96955.69;5044024;28;20140;-59
2023/07/28 09:12:48;;;;;;;1.58;1.58;;;;;;;26.46;33.08;96883.75;5046001;28;20087;-58
2023/07/28 09:15:18;;;;;;;1.60;1.60;;;;;;;26.97;33.60;96957.63;5045896;28;20637;-60
2023/07/28 09:17:45;;;;;;;1.60;1.60;;;;;;;24.78;33.30;96673.94;5044792;28;20491;-64
2023/07/28 09:20:16;;;;;;;1.70;1.70;;;;;;;26.19;34.62;96959.75;5039266;28;20519;-61
2023/07/28 09:22:44;;;;;;;1.40;1.40;;;;;;;25.89;34.18;96947.25;5044668;28;20061;-64
2023/07/28 09:25:15;;;;;;;1.38;1.38;;;;;;;26.42;34.56;96939.97;5026070;28;20053;-65
2023/07/28 09:27:52;;;;;;;1.30;1.30;;;;;;;26.59;34.83;96943.22;5032721;28;20049;-63
2023/07/28 09:30:21;;;;;;;1.40;1.40;;;;;;;25.62;34.86;96938.78;5042868;28;20414;-63
2023/07/28 09:32:50;;;;;;;1.30;1.30;;;;;;;25.80;34.76;96949.34;5051638;28;20048;-63
2023/07/28 09:35:17;;;;;;;1.50;1.50;;;;;;;26.61;33.69;96940.69;5044458;28;20485;-60
2023/07/28 09:37:48;;;;;;;1.30;1.30;;;;;;;27.07;32.98;96927.91;5044340;28;20037;-62
2023/07/28 09:40:21;;;;;;;1.40;1.40;;;;;;;27.20;32.67;96934.16;5044746;28;20049;-62
2023/07/28 09:42:50;;;;;;;1.40;1.40;;;;;;;27.18;32.34;96924.50;5044644;28;20051;-61
2023/07/28 09:45:22;;;;;;;1.60;1.60;;;;;;;26.75;33.00;96973.38;5044370;28;20053;-62
2023/07/28 09:48:07;;;;;;;1.52;1.52;;;;;;;26.96;31.91;96910.56;5045369;28;20072;-64
2023/07/28 09:50:38;;;;;;;1.60;1.60;;;;;;;27.25;32.39;96910.69;5045040;28;20049;-62
2023/07/28 09:53:08;;;;;;;1.48;1.48;;;;;;;26.82;32.54;96853.63;5045042;28;20587;-63
2023/07/28 09:55:39;;;;;;;1.20;1.20;;;;;;;27.33;32.19;96900.56;5045042;28;20053;-65
2023/07/28 09:58:09;;;;;;;1.50;1.50;;;;;;;27.54;32.39;96910.06;5045368;28;20078;-62
2023/07/28 10:00:37;;;;;;;1.42;1.42;;;;;;;27.45;31.84;96908.09;5043627;28;20612;-63
2023/07/28 10:03:04;;;;;;;1.60;1.60;;;;;;;27.65;32.07;96894.00;5045437;28;20463;-61
2023/07/28 10:05:32;;;;;;;1.42;1.42;;;;;;;28.26;31.59;96902.97;5044650;28;20550;-63
2023/07/28 10:07:59;;;;;;;1.52;1.52;;;;;;;27.97;31.84;96893.13;5044999;28;20149;-65
2023/07/28 10:10:26;;;;;;;1.73;1.73;;;;;;;27.62;31.93;96889.28;5044627;28;20057;-62
2023/07/28 10:12:56;;;;;;;2.00;2.00;;;;;;;27.53;31.52;96801.13;5045283;28;20065;-65
2023/07/28 10:15:29;;;;;;;1.73;1.73;;;;;;;28.41;30.47;96867.47;5044451;28;20055;-63
2023/07/28 10:18:00;;;;;;;1.95;1.95;;;;;;;28.35;30.42;96889.41;5043740;28;20098;-60
2023/07/28 10:20:32;;;;;;;1.75;1.75;;;;;;;27.32;30.22;96653.53;5043488;28;20132;-62
2023/07/28 10:23:07;;;;;;;1.73;1.73;;;;;;;29.10;29.64;96876.13;5045274;28;20056;-63
2023/07/28 10:25:36;;;;;;;1.70;1.70;;;;;;;29.02;28.92;96806.47;5044657;28;20142;-65
2023/07/28 10:28:05;;;;;;;1.85;1.85;;;;;;;29.27;29.20;96847.81;5043457;28;20235;-63
2023/07/28 10:30:37;;;;;;;1.65;1.65;;;;;;;29.02;29.66;96862.75;5042930;28;20075;-63
2023/07/28 10:33:04;;;;;;;1.80;1.80;;;;;;;28.36;30.00;96776.19;5044605;28;20060;-62
2023/07/28 10:35:32;;;;;;;1.80;1.80;;;;;;;28.01;31.78;96865.22;5044280;28;20380;-61
2023/07/28 10:38:30;;;;;;;1.55;1.55;;;;;;;27.28;31.84;96843.56;5044447;28;20091;-62
2023/07/28 10:41:16;;;;;;;1.80;1.80;;;;;;;27.67;31.13;96865.84;5044117;28;20044;-63
2023/07/28 10:43:45;;;;;;;1.80;1.80;;;;;;;28.18;30.95;96863.44;5044490;28;20460;-60
2023/07/28 10:46:17;;;;;;;1.70;1.70;;;;;;;28.18;31.13;96854.91;5043873;28;20428;-62
2023/07/28 10:48:47;;;;;;;1.80;1.80;;;;;;;28.58;30.85;96856.38;5026220;28;20093;-62
2023/07/28 10:51:28;;;;;;;1.90;1.90;;;;;;;29.14;29.55;96847.38;5023984;28;20049;-61
2023/07/28 10:53:56;;;;;;;1.85;1.85;;;;;;;29.06;29.89;96806.25;5048418;28;20044;-62
2023/07/28 10:56:23;;;;;;;2.00;2.00;;;;;;;28.60;30.42;96854.59;5034021;28;20056;-60
2023/07/28 10:59:00;;;;;;;2.05;2.05;;;;;;;29.13;29.40;96845.81;5031054;28;20136;-62
2023/07/28 11:01:33;;;;;;;1.92;1.92;;;;;;;28.33;30.30;96837.03;5024029;28;20635;-61
2023/07/28 11:04:17;;;;;;;1.85;1.85;;;;;;;29.11;30.10;96831.25;5024812;28;20049;-63
2023/07/28 11:06:45;;;;;;;;;;;;;;;29.22;29.18;96837.13;5076205;28;20064;-61
2023/07/28 11:09:14;;;;;;;1.45;1.45;;;;;;;28.66;29.52;96840.44;5074799;28;19947;-62
2023/07/28 11:11:42;;;;;;;1.90;1.90;;;;;;;28.49;30.33;96836.53;5042510;28;20056;-61
2023/07/28 11:14:15;;;;;;;1.90;1.90;;;;;;;28.11;30.46;96843.91;5042598;28;20048;-61
2023/07/28 11:16:43;;;;;;;1.60;1.60;;;;;;;28.17;30.12;96780.56;5043876;28;20060;-61
2023/07/28 11:19:13;;;;;;;1.65;1.65;;;;;;;28.72;29.45;96832.75;5040716;28;20060;-61
2023/07/28 11:21:42;;;;;;;1.70;1.70;;;;;;;28.64;30.42;96831.59;5040762;28;20045;-65
2023/07/28 11:24:10;;;;;;;1.77;1.77;;;;;;;28.48;29.83;96795.06;5042364;28;20060;-59
2023/07/28 11:26:39;;;;;;;1.92;1.92;;;;;;;28.61;29.81;96827.66;5041262;28;20056;-62
2023/07/28 11:29:07;;;;;;;1.70;1.70;;;;;;;27.92;30.24;96751.41;5038441;28;20053;-63
2023/07/28 11:31:34;;;;;;;1.70;1.70;;;;;;;27.74;30.24;96600.69;5042954;28;20140;-64
2023/07/28 11:34:02;;;;;;;1.90;1.90;;;;;;;29.57;28.74;96812.13;5043328;28;20150;-60
2023/07/28 11:36:31;;;;;;;1.88;1.88;;;;;;;29.00;29.40;96802.56;5030898;28;20599;-61